Time;durP1;ratioP1;P1;durP2;ratioP2;P2;SDS_P1;SDS_P2;PMS_P1;PMS_P2;Temp;Humidity;BMP_temperature;BMP_pressure;BME280_temperature;BME280_humidity;BME280_pressure;Samples;Min_cycle;Max_cycle;Signal;HPM_P1;HPM_P2
2022/11/07 00:00:32;;;;;;;11.50;10.70;;;10.80;99.90;;;;;;4984021;28;20501;-85
2022/11/07 00:03:01;;;;;;;12.00;11.10;;;10.80;99.90;;;;;;4983710;28;20454;-85
2022/11/07 00:05:33;;;;;;;11.63;10.93;;;10.70;99.90;;;;;;4983752;28;20451;-85
2022/11/07 00:08:02;;;;;;;12.93;12.07;;;10.60;99.90;;;;;;4983267;28;21016;-85
2022/11/07 00:10:32;;;;;;;14.10;13.20;;;10.40;99.90;;;;;;4983667;28;20458;-85
2022/11/07 00:13:01;;;;;;;18.70;17.30;;;10.40;99.90;;;;;;4982772;28;20466;-85
2022/11/07 00:15:28;;;;;;;25.40;24.20;;;10.20;99.90;;;;;;4983584;28;20483;-84
2022/11/07 00:17:55;;;;;;;22.57;21.47;;;10.20;99.90;;;;;;4983402;28;20486;-85
2022/11/07 00:20:25;;;;;;;34.63;32.93;;;10.10;99.90;;;;;;4982538;28;20486;-85
2022/11/07 00:22:52;;;;;;;38.03;36.07;;;10.00;99.90;;;;;;4983154;28;20494;-85
2022/11/07 00:25:30;;;;;;;52.27;50.17;;;9.90;99.90;;;;;;4982823;28;20545;-84
2022/11/07 00:27:59;;;;;;;58.07;55.27;;;10.00;99.90;;;;;;4982141;28;21024;-86
2022/11/07 00:30:32;;;;;;;56.20;54.13;;;10.00;99.90;;;;;;4982170;28;20534;-85
2022/11/07 00:33:01;;;;;;;52.60;50.37;;;9.90;99.90;;;;;;4983168;28;20522;-84
2022/11/07 00:35:28;;;;;;;74.23;71.53;;;9.90;99.90;;;;;;4982864;28;20463;-85
2022/11/07 00:37:56;;;;;;;73.57;70.77;;;9.90;99.90;;;;;;4982558;28;20483;-85
2022/11/07 00:40:23;;;;;;;71.90;69.33;;;9.80;99.90;;;;;;4982759;28;20455;-84
2022/11/07 00:42:50;;;;;;;52.87;50.53;;;9.80;99.90;;;;;;4982457;28;20463;-85
2022/11/07 00:45:19;;;;;;;46.83;45.07;;;9.90;99.90;;;;;;4982453;28;20478;-85
2022/11/07 00:47:48;;;;;;;65.63;63.03;;;9.90;99.90;;;;;;4982296;28;20474;-86
2022/11/07 00:50:15;;;;;;;66.93;64.37;;;9.90;99.90;;;;;;4982979;28;20513;-85
2022/11/07 00:52:45;;;;;;;55.80;53.50;;;9.90;99.90;;;;;;4982514;28;21028;-85
2022/11/07 00:55:14;;;;;;;64.83;62.17;;;10.10;99.90;;;;;;4982624;28;20455;-84
2022/11/07 00:57:52;;;;;;;44.10;42.23;;;10.10;99.90;;;;;;4981714;28;21055;-86
2022/11/07 01:00:19;;;;;;;42.37;40.70;;;10.20;99.90;;;;;;4981727;28;20470;-86
2022/11/07 01:05:09;;;;;;;38.23;36.73;;;10.30;99.90;;;;;;4982136;28;20455;-85
2022/11/07 01:05:41;;;;;;;30.47;29.07;;;10.40;99.90;;;;;;4982310;28;20455;-85
2022/11/07 01:08:08;;;;;;;34.67;32.87;;;10.50;99.90;;;;;;4981026;28;21064;-83
2022/11/07 01:10:41;;;;;;;36.00;34.30;;;10.50;99.90;;;;;;4980092;28;20547;-84
2022/11/07 01:13:08;;;;;;;36.73;35.17;;;10.50;99.90;;;;;;4979788;28;20501;-84
2022/11/07 01:15:40;;;;;;;44.73;42.93;;;10.50;99.90;;;;;;4980665;28;20454;-84
2022/11/07 01:18:10;;;;;;;51.03;48.90;;;10.40;99.90;;;;;;4980639;28;20502;-84
2022/11/07 01:20:37;;;;;;;69.10;65.80;;;10.30;99.90;;;;;;4980215;28;20455;-84
2022/11/07 01:23:04;;;;;;;86.67;83.33;;;10.30;99.90;;;;;;4981801;28;20455;-83
2022/11/07 01:25:33;;;;;;;101.43;97.23;;;10.10;99.90;;;;;;4980740;28;20526;-84
2022/11/07 01:28:00;;;;;;;111.13;106.73;;;10.00;99.90;;;;;;4980487;28;20898;-84
2022/11/07 01:30:27;;;;;;;116.90;112.83;;;10.00;99.90;;;;;;4980492;28;20494;-83
2022/11/07 01:32:54;;;;;;;150.20;144.67;;;10.00;99.90;;;;;;4980342;28;20558;-84
2022/11/07 01:35:24;;;;;;;186.20;179.80;;;9.80;99.90;;;;;;4980678;28;20941;-85
2022/11/07 01:37:51;;;;;;;220.67;213.00;;;10.00;99.90;;;;;;4979834;28;20487;-84
2022/11/07 01:40:22;;;;;;;180.87;174.80;;;9.90;99.90;;;;;;4980159;28;20542;-84
2022/11/07 01:42:48;;;;;;;177.37;171.07;;;10.00;99.90;;;;;;4980891;28;20835;-84
2022/11/07 01:45:22;;;;;;;178.37;172.03;;;10.10;99.90;;;;;;4980291;28;20487;-84
2022/11/07 01:47:50;;;;;;;182.60;176.00;;;10.10;99.90;;;;;;4980627;28;20517;-84
2022/11/07 01:50:17;;;;;;;180.00;173.87;;;9.90;99.90;;;;;;4980819;28;20485;-84
2022/11/07 01:52:49;;;;;;;178.47;172.40;;;10.00;99.90;;;;;;4980740;28;20874;-84
2022/11/07 01:55:21;;;;;;;148.87;143.83;;;10.10;99.90;;;;;;4979985;28;20459;-85
2022/11/07 01:57:52;;;;;;;134.70;129.90;;;10.10;99.90;;;;;;4980424;28;20525;-84
2022/11/07 02:00:23;;;;;;;134.10;129.50;;;10.00;99.90;;;;;;4980537;28;20451;-85
2022/11/07 02:02:54;;;;;;;119.67;115.40;;;10.00;99.90;;;;;;4981095;28;20483;-84
2022/11/07 02:05:28;;;;;;;120.60;116.43;;;9.90;99.90;;;;;;4980017;28;20466;-84
2022/11/07 02:07:57;;;;;;;132.90;128.30;;;10.00;99.90;;;;;;4979561;28;20479;-84
2022/11/07 02:10:24;;;;;;;134.83;130.23;;;9.80;99.90;;;;;;4980491;28;20474;-84
2022/11/07 02:12:51;;;;;;;159.70;154.17;;;9.70;99.90;;;;;;4979420;28;20461;-84
2022/11/07 02:15:18;;;;;;;185.73;179.40;;;9.60;99.90;;;;;;4979382;28;20459;-84
2022/11/07 02:17:45;;;;;;;217.40;210.13;;;9.70;99.90;;;;;;4979294;28;20489;-84
2022/11/07 02:20:13;;;;;;;236.33;228.33;;;9.60;99.90;;;;;;4979894;28;20463;-84
2022/11/07 02:22:59;;;;;;;224.57;216.90;;;9.70;99.90;;;;;;4979463;28;20486;-84
2022/11/07 02:25:32;;;;;;;235.97;227.87;;;9.70;99.90;;;;;;4980402;28;20458;-84
2022/11/07 02:28:03;;;;;;;213.77;206.07;;;9.80;99.90;;;;;;4979773;28;21036;-84
2022/11/07 02:30:33;;;;;;;175.57;169.37;;;9.80;99.90;;;;;;4980064;28;20479;-84
2022/11/07 02:33:00;;;;;;;165.13;159.30;;;9.70;99.90;;;;;;4979397;28;20953;-84
2022/11/07 02:35:37;;;;;;;153.07;147.17;;;9.80;99.90;;;;;;4980252;28;20487;-84
2022/11/07 02:38:07;;;;;;;149.37;143.87;;;9.80;99.90;;;;;;4979484;28;20554;-85
2022/11/07 02:40:35;;;;;;;165.43;159.23;;;9.80;99.90;;;;;;4979911;28;20905;-84
2022/11/07 02:43:08;;;;;;;158.50;152.50;;;9.80;99.90;;;;;;4979798;28;20821;-84
2022/11/07 02:45:42;;;;;;;160.27;154.77;;;9.80;99.90;;;;;;4980877;28;20447;-84
2022/11/07 02:48:09;;;;;;;161.47;155.57;;;9.80;99.90;;;;;;4979488;28;20474;-84
2022/11/07 02:50:36;;;;;;;173.63;167.77;;;9.80;99.90;;;;;;4979917;28;20463;-84
2022/11/07 02:53:03;;;;;;;180.43;174.17;;;9.70;99.90;;;;;;4982722;28;20462;-84
2022/11/07 02:55:30;;;;;;;166.63;160.93;;;9.80;99.90;;;;;;4984000;28;20490;-84
2022/11/07 02:57:59;;;;;;;163.00;157.43;;;9.90;99.90;;;;;;4983952;28;20478;-84
2022/11/07 03:00:26;;;;;;;151.87;146.67;;;9.80;99.90;;;;;;4983878;28;20897;-85
2022/11/07 03:02:53;;;;;;;158.33;153.03;;;9.80;99.90;;;;;;4983662;28;20458;-84
2022/11/07 03:05:24;;;;;;;142.20;136.97;;;9.70;99.90;;;;;;4984193;28;20465;-84
2022/11/07 03:07:51;;;;;;;152.03;146.43;;;9.80;99.90;;;;;;4983758;28;20884;-84
2022/11/07 03:10:23;;;;;;;158.67;152.90;;;9.90;99.90;;;;;;4983583;28;20949;-82
2022/11/07 03:12:50;;;;;;;159.87;153.97;;;9.90;99.90;;;;;;4983648;28;20498;-85
2022/11/07 03:15:18;;;;;;;180.00;173.97;;;9.90;99.90;;;;;;4983608;28;20533;-84
2022/11/07 03:17:45;;;;;;;186.10;179.70;;;9.90;99.90;;;;;;4983153;28;20474;-84
2022/11/07 03:20:15;;;;;;;152.43;147.03;;;10.00;99.90;;;;;;4983707;28;20479;-86
2022/11/07 03:22:42;;;;;;;145.70;140.70;;;10.00;99.90;;;;;;4983920;28;20514;-84
2022/11/07 03:25:10;;;;;;;138.47;133.87;;;10.00;99.90;;;;;;4983980;28;20461;-84
2022/11/07 03:27:45;;;;;;;126.57;121.37;;;9.90;99.90;;;;;;4983427;28;20474;-84
2022/11/07 03:30:12;;;;;;;136.37;131.27;;;10.00;99.90;;;;;;4983523;28;20462;-84
2022/11/07 03:32:41;;;;;;;117.57;113.47;;;10.00;99.90;;;;;;4983298;28;20518;-84
2022/11/07 03:35:08;;;;;;;95.03;90.73;;;10.00;99.90;;;;;;4983757;28;20459;-84
2022/11/07 03:37:35;;;;;;;75.23;71.83;;;10.00;99.90;;;;;;4983793;28;20568;-84
2022/11/07 03:40:03;;;;;;;62.80;59.80;;;10.00;99.90;;;;;;4984681;28;20527;-85
2022/11/07 03:42:30;;;;;;;63.87;61.07;;;10.00;99.90;;;;;;4984139;28;20466;-84
2022/11/07 03:44:57;;;;;;;61.03;57.90;;;9.90;99.90;;;;;;4984008;28;20455;-84
2022/11/07 03:47:24;;;;;;;64.33;60.60;;;9.80;99.90;;;;;;4983447;28;20545;-84
2022/11/07 03:49:53;;;;;;;62.10;58.60;;;9.80;99.90;;;;;;4983849;28;20459;-84
2022/11/07 03:52:19;;;;;;;55.63;53.40;;;9.80;99.90;;;;;;4983671;28;20461;-84
2022/11/07 03:54:46;;;;;;;64.80;62.10;;;9.70;99.90;;;;;;4984757;28;20494;-85
2022/11/07 03:57:13;;;;;;;69.63;66.93;;;9.70;99.90;;;;;;4983639;28;20851;-84
2022/11/07 03:59:40;;;;;;;67.33;64.43;;;9.70;99.90;;;;;;4982663;28;20904;-85
2022/11/07 04:02:07;;;;;;;79.30;76.03;;;9.60;99.90;;;;;;4982958;28;20463;-85
2022/11/07 04:04:34;;;;;;;82.63;79.33;;;9.60;99.90;;;;;;4983122;28;20493;-84
2022/11/07 04:07:03;;;;;;;78.67;74.87;;;9.60;99.90;;;;;;4982998;28;20868;-84
2022/11/07 04:09:29;;;;;;;66.87;64.07;;;9.70;99.90;;;;;;4982892;28;20455;-84
2022/11/07 04:17:26;;;;;;;59.40;56.93;;;9.60;99.90;;;;;;4981790;28;20462;-85
2022/11/07 04:19:55;;;;;;;69.37;66.30;;;9.70;99.90;;;;;;4983210;28;20474;-86
2022/11/07 04:22:27;;;;;;;126.77;122.17;;;9.60;99.90;;;;;;4982636;28;20455;-83
2022/11/07 04:24:54;;;;;;;92.30;88.80;;;9.50;99.90;;;;;;4982488;28;20462;-84
2022/11/07 04:30:18;;;;;;;88.53;85.03;;;9.40;99.90;;;;;;4981458;28;20443;-85
2022/11/07 04:32:46;;;;;;;116.57;112.17;;;9.20;99.90;;;;;;4982423;28;20463;-85
2022/11/07 04:35:13;;;;;;;122.63;118.13;;;9.30;99.90;;;;;;4982531;28;20459;-84
2022/11/07 04:37:56;;;;;;;125.67;121.30;;;9.30;99.90;;;;;;4981399;28;20509;-84
2022/11/07 04:40:23;;;;;;;128.73;123.73;;;9.20;99.90;;;;;;4982047;28;20548;-85
2022/11/07 04:42:50;;;;;;;155.23;149.67;;;9.40;99.90;;;;;;4981058;28;20958;-85
2022/11/07 04:45:59;;;;;;;;;;;;;;;;;;;;;
2022/11/07 04:48:46;;;;;;;156.80;150.13;;;9.30;99.90;;;;;;5123621;23;1218759;-84
2022/11/07 04:54:51;;;;;;;143.97;138.73;;;9.10;99.90;;;;;;4867200;29;20597;-85
2022/11/07 04:57:21;;;;;;;164.33;157.70;;;9.30;99.90;;;;;;4976677;28;20545;-85
2022/11/07 04:59:48;;;;;;;202.17;194.47;;;9.00;99.90;;;;;;4982264;28;20561;-86
2022/11/07 05:02:17;;;;;;;201.57;194.03;;;9.00;99.90;;;;;;4982210;28;20487;-86
2022/11/07 05:04:46;;;;;;;197.30;189.73;;;9.00;99.90;;;;;;4981995;28;20462;-86
2022/11/07 05:07:16;;;;;;;192.90;185.43;;;9.10;99.90;;;;;;4982689;28;20554;-86
2022/11/07 05:09:44;;;;;;;180.23;172.97;;;9.30;99.90;;;;;;4982898;28;20443;-85
2022/11/07 05:12:12;;;;;;;160.03;153.60;;;9.40;99.90;;;;;;4981401;28;20455;-87
2022/11/07 05:14:39;;;;;;;133.33;128.20;;;9.50;99.90;;;;;;4980619;28;20487;-86
2022/11/07 05:17:05;;;;;;;101.27;97.43;;;9.50;99.90;;;;;;4981189;28;20486;-86
2022/11/07 05:19:32;;;;;;;92.30;88.40;;;9.60;99.90;;;;;;4981029;28;20486;-86
2022/11/07 05:24:43;;;;;;;70.63;67.30;;;9.70;99.90;;;;;;4981028;28;20822;-86
2022/11/07 05:27:18;;;;;;;67.30;64.20;;;9.80;99.90;;;;;;4981316;28;20932;-86
2022/11/07 05:29:45;;;;;;;60.57;57.97;;;9.80;99.90;;;;;;4981032;28;20450;-86
2022/11/07 05:32:11;;;;;;;50.93;48.37;;;10.00;99.90;;;;;;4980296;28;20465;-86
2022/11/07 05:34:38;;;;;;;47.80;45.80;;;9.90;99.90;;;;;;4980673;28;20879;-87
2022/11/07 05:37:07;;;;;;;44.33;42.53;;;10.00;99.90;;;;;;4980206;28;20483;-87
2022/11/07 05:39:34;;;;;;;45.10;42.50;;;10.10;99.90;;;;;;4980388;28;20479;-86
2022/11/07 05:42:01;;;;;;;38.70;36.53;;;10.20;99.90;;;;;;4980716;28;20459;-87
2022/11/07 05:44:30;;;;;;;30.40;28.60;;;10.40;99.90;;;;;;4980825;28;20477;-86
2022/11/07 05:46:57;;;;;;;25.37;23.60;;;10.50;99.90;;;;;;4979963;28;20486;-86
2022/11/07 05:49:24;;;;;;;15.30;14.20;;;10.60;99.90;;;;;;4980611;28;20495;-86
2022/11/07 05:51:52;;;;;;;17.90;8.77;;;10.70;99.90;;;;;;4980978;28;20554;-86
2022/11/07 05:54:19;;;;;;;7.77;6.53;;;10.90;99.90;;;;;;4981050;28;20545;-87
2022/11/07 05:56:46;;;;;;;8.03;6.50;;;10.90;99.90;;;;;;4980344;28;20469;-86
2022/11/07 05:59:42;;;;;;;10.23;6.20;;;11.00;99.90;;;;;;4980334;28;20506;-86
2022/11/07 06:02:09;;;;;;;16.37;4.40;;;11.00;99.90;;;;;;4980829;28;20465;-87
2022/11/07 06:04:36;;;;;;;8.20;3.20;;;11.10;99.90;;;;;;4980129;28;20451;-86
2022/11/07 06:07:02;;;;;;;10.13;3.37;;;11.20;99.90;;;;;;4980467;28;20474;-86
2022/11/07 06:09:32;;;;;;;11.10;3.50;;;11.20;99.90;;;;;;4981415;28;20447;-86
2022/11/07 06:12:02;;;;;;;6.40;2.30;;;11.30;99.90;;;;;;4980654;28;20455;-87
2022/11/07 06:14:29;;;;;;;8.43;2.37;;;11.30;99.90;;;;;;4981029;28;20505;-87
2022/11/07 06:16:57;;;;;;;9.83;2.30;;;11.30;99.90;;;;;;4980134;28;20487;-86
2022/11/07 06:19:32;;;;;;;9.50;2.77;;;11.30;99.90;;;;;;4980784;28;20566;-87
2022/11/07 06:22:00;;;;;;;11.17;3.60;;;11.30;99.90;;;;;;4979719;28;20481;-86
2022/11/07 06:24:27;;;;;;;8.47;2.83;;;11.30;99.90;;;;;;4980674;28;20523;-86
2022/11/07 06:29:27;;;;;;;10.60;2.80;;;11.40;99.90;;;;;;4960019;28;20487;-83
2022/11/07 06:32:03;;;;;;;8.17;2.30;;;11.50;99.90;;;;;;4960844;29;20491;-85
2022/11/07 06:37:44;;;;;;;11.07;3.70;;;11.50;99.90;;;;;;4958548;28;20491;-85
2022/11/07 06:40:12;;;;;;;6.97;2.27;;;11.60;99.90;;;;;;4960371;29;20479;-85
2022/11/07 06:42:41;;;;;;;5.23;2.23;;;11.60;99.90;;;;;;4960239;28;20994;-85
2022/11/07 06:45:08;;;;;;;9.80;2.60;;;11.70;99.90;;;;;;4960592;29;20468;-84
2022/11/07 06:47:36;;;;;;;12.83;3.87;;;11.80;99.90;;;;;;4960581;28;20491;-86
2022/11/07 06:50:14;;;;;;;10.30;2.50;;;11.70;99.90;;;;;;4960858;29;20459;-86
2022/11/07 06:52:44;;;;;;;7.07;2.27;;;11.70;99.90;;;;;;4962544;29;20463;-85
2022/11/07 06:55:11;;;;;;;23.10;3.13;;;11.90;99.80;;;;;;4961643;29;20559;-85
2022/11/07 06:57:38;;;;;;;12.60;2.23;;;11.80;99.90;;;;;;4962047;28;20486;-85
2022/11/07 07:00:08;;;;;;;11.83;2.87;;;11.90;99.90;;;;;;4961852;29;20499;-83
2022/11/07 07:02:36;;;;;;;6.90;2.10;;;11.90;99.90;;;;;;4962419;29;20514;-85
2022/11/07 07:05:08;;;;;;;9.83;2.40;;;11.90;99.90;;;;;;4962376;28;20455;-85
2022/11/07 07:07:46;;;;;;;11.40;2.70;;;11.90;99.90;;;;;;4962943;28;20511;-86
2022/11/07 07:10:13;;;;;;;7.07;1.93;;;12.00;99.90;;;;;;4963305;29;20906;-85
2022/11/07 07:12:40;;;;;;;21.83;3.07;;;12.10;99.90;;;;;;4964158;29;20480;-85
2022/11/07 07:15:17;;;;;;;14.00;2.70;;;12.10;99.90;;;;;;4962552;29;20523;-86
2022/11/07 07:17:45;;;;;;;12.10;2.53;;;12.20;99.90;;;;;;4962617;28;20475;-85
2022/11/07 07:20:12;;;;;;;13.10;3.07;;;12.20;99.90;;;;;;4962889;29;20539;-85
2022/11/07 07:22:44;;;;;;;15.23;2.67;;;12.30;99.90;;;;;;4963217;28;20519;-85
2022/11/07 07:25:15;;;;;;;6.87;2.77;;;12.40;99.90;;;;;;4963568;29;20463;-85
2022/11/07 07:28:26;;;;;;;7.43;2.00;;;12.50;99.90;;;;;;4963989;28;20488;-85
2022/11/07 07:30:53;;;;;;;12.73;2.83;;;12.70;99.90;;;;;;4963603;28;20513;-85
2022/11/07 07:33:21;;;;;;;6.90;2.20;;;12.80;99.70;;;;;;4964688;29;20540;-85
2022/11/07 07:35:48;;;;;;;8.70;3.70;;;12.90;99.00;;;;;;4964007;29;20462;-86
2022/11/07 07:38:21;;;;;;;11.03;2.93;;;13.10;98.90;;;;;;4963475;28;20479;-86
2022/11/07 07:40:48;;;;;;;7.93;2.47;;;13.20;99.00;;;;;;4968767;29;20479;-87
2022/11/07 07:43:15;;;;;;;8.97;2.77;;;13.10;98.90;;;;;;4966800;29;20455;-85
2022/11/07 07:45:45;;;;;;;12.33;3.37;;;13.10;99.40;;;;;;4967048;29;20490;-86
2022/11/07 07:48:34;;;;;;;9.30;2.00;;;13.10;98.90;;;;;;4966046;28;20543;-84
2022/11/07 07:51:01;;;;;;;5.70;1.80;;;13.10;98.90;;;;;;4967153;29;20542;-85
2022/11/07 07:53:28;;;;;;;12.10;2.30;;;13.20;99.00;;;;;;4965872;29;20527;-85
2022/11/07 07:55:59;;;;;;;15.83;2.50;;;13.20;99.00;;;;;;4962171;28;20483;-86
2022/11/07 07:58:27;;;;;;;18.10;2.93;;;13.10;98.90;;;;;;4945747;29;20508;-84
2022/11/07 08:00:56;;;;;;;13.00;2.67;;;13.20;99.00;;;;;;4946168;29;20484;-85
2022/11/07 08:03:25;;;;;;;8.60;2.60;;;13.20;99.00;;;;;;4946222;29;20543;-85
2022/11/07 08:05:54;;;;;;;8.90;2.10;;;13.30;99.00;;;;;;4946067;29;20890;-85
2022/11/07 08:08:22;;;;;;;12.87;2.93;;;13.30;99.00;;;;;;4944903;29;20532;-85
2022/11/07 08:10:53;;;;;;;8.40;1.93;;;13.30;99.00;;;;;;4944270;29;20491;-85
2022/11/07 08:13:21;;;;;;;13.60;2.50;;;13.40;99.00;;;;;;4946732;29;20479;-85
2022/11/07 08:15:48;;;;;;;8.60;2.33;;;13.30;99.00;;;;;;4945218;29;20488;-86
2022/11/07 08:18:15;;;;;;;10.57;2.60;;;13.30;99.00;;;;;;4944965;29;20481;-85
2022/11/07 08:20:44;;;;;;;10.67;1.83;;;13.30;99.00;;;;;;4943335;29;20472;-85
2022/11/07 08:23:11;;;;;;;16.23;2.40;;;13.30;99.00;;;;;;4945720;29;20544;-85
2022/11/07 08:25:38;;;;;;;12.33;2.30;;;13.30;99.00;;;;;;4945356;29;20499;-85
2022/11/07 08:28:07;;;;;;;13.90;2.47;;;13.30;99.00;;;;;;4944950;29;20596;-85
2022/11/07 08:30:34;;;;;;;13.70;2.40;;;13.30;99.00;;;;;;4944391;29;20464;-84
2022/11/07 08:33:01;;;;;;;6.03;1.50;;;13.30;99.00;;;;;;4945138;29;20545;-86
2022/11/07 08:35:29;;;;;;;14.50;2.70;;;13.30;99.30;;;;;;4945565;29;20910;-85
2022/11/07 08:38:03;;;;;;;6.47;1.97;;;13.40;99.00;;;;;;4946015;29;20887;-84
2022/11/07 08:40:30;;;;;;;8.00;1.70;;;13.40;98.70;;;;;;4945292;29;20491;-85
2022/11/07 08:43:00;;;;;;;7.23;2.20;;;13.50;98.60;;;;;;4944171;29;20481;-84
2022/11/07 08:45:27;;;;;;;13.97;2.73;;;13.50;98.40;;;;;;4945569;29;20460;-84
2022/11/07 08:47:59;;;;;;;10.37;2.70;;;13.60;98.40;;;;;;4945459;29;20479;-85
2022/11/07 08:50:26;;;;;;;10.00;1.93;;;13.60;99.10;;;;;;4943446;29;20839;-84
2022/11/07 08:52:54;;;;;;;8.47;2.30;;;13.70;98.00;;;;;;4943526;29;20485;-85
2022/11/07 08:55:22;;;;;;;4.97;1.57;;;13.70;98.20;;;;;;4943908;29;20471;-85
2022/11/07 08:57:48;;;;;;;8.93;2.10;;;13.90;97.60;;;;;;4943921;29;20490;-85
2022/11/07 09:00:15;;;;;;;7.63;2.20;;;13.90;97.50;;;;;;4944032;29;20480;-85
2022/11/07 09:02:42;;;;;;;10.43;2.27;;;13.90;98.00;;;;;;4944053;29;20453;-84
2022/11/07 09:05:09;;;;;;;13.30;2.97;;;13.90;98.60;;;;;;4945072;29;20555;-85
2022/11/07 09:07:38;;;;;;;8.20;2.07;;;13.90;99.20;;;;;;4944415;29;20484;-85
2022/11/07 09:10:05;;;;;;;15.50;1.90;;;13.90;99.00;;;;;;4943198;29;20453;-84
2022/11/07 09:12:33;;;;;;;7.50;1.73;;;13.80;99.20;;;;;;4944029;29;20449;-85
2022/11/07 09:15:00;;;;;;;8.70;1.97;;;13.80;99.20;;;;;;4943835;29;20457;-84
2022/11/07 09:17:28;;;;;;;9.70;2.53;;;13.60;99.90;;;;;;4940696;29;20477;-84
2022/11/07 09:19:54;;;;;;;11.17;3.83;;;13.40;99.90;;;;;;4940053;29;20464;-83
2022/11/07 09:22:22;;;;;;;11.17;7.27;;;13.10;99.90;;;;;;4939218;29;20484;-83
2022/11/07 09:24:49;;;;;;;21.87;20.57;;;13.00;99.90;;;;;;4939930;29;20453;-82
2022/11/07 09:27:15;;;;;;;83.90;80.30;;;12.80;99.90;;;;;;4939917;29;20488;-83
2022/11/07 09:29:43;;;;;;;195.47;188.57;;;12.80;99.90;;;;;;4940428;29;20459;-82
2022/11/07 09:32:10;;;;;;;246.03;238.13;;;12.70;99.90;;;;;;4939860;29;20456;-82
2022/11/07 09:34:38;;;;;;;285.57;276.17;;;12.80;99.90;;;;;;4940313;29;20457;-82
2022/11/07 09:37:04;;;;;;;171.40;165.30;;;12.90;99.90;;;;;;4939348;29;20472;-82
2022/11/07 09:39:31;;;;;;;243.80;236.03;;;12.90;99.90;;;;;;4939447;29;20463;-82
2022/11/07 09:42:05;;;;;;;170.77;164.57;;;12.90;99.90;;;;;;4939859;29;20504;-83
2022/11/07 09:44:46;;;;;;;96.17;92.37;;;12.90;99.90;;;;;;4940384;29;20463;-83
2022/11/07 09:47:19;;;;;;;78.10;75.13;;;13.00;99.90;;;;;;4940662;29;20476;-83
2022/11/07 09:49:48;;;;;;;82.67;79.57;;;13.00;99.90;;;;;;4940129;29;20993;-83
2022/11/07 09:52:19;;;;;;;59.97;57.03;;;13.00;99.90;;;;;;4940062;29;20463;-85
2022/11/07 09:54:51;;;;;;;52.20;49.03;;;13.20;99.90;;;;;;4940465;29;20472;-83
2022/11/07 09:57:19;;;;;;;40.33;38.43;;;13.20;99.90;;;;;;4940584;29;20481;-84
2022/11/07 09:59:52;;;;;;;27.03;25.03;;;13.30;99.90;;;;;;4940536;29;20461;-84
2022/11/07 10:02:23;;;;;;;26.93;25.67;;;13.40;99.90;;;;;;4939937;29;20480;-83
2022/11/07 10:04:55;;;;;;;24.43;23.13;;;13.50;99.90;;;;;;4940653;29;20463;-85
2022/11/07 10:07:34;;;;;;;10.63;7.60;;;13.50;99.90;;;;;;4939488;29;20476;-84
2022/11/07 10:10:06;;;;;;;11.40;10.23;;;13.50;99.90;;;;;;4939646;29;20845;-83
2022/11/07 10:12:58;;;;;;;20.40;12.07;;;13.50;99.90;;;;;;4940239;29;20456;-84
2022/11/07 10:15:32;;;;;;;21.93;9.50;;;13.50;99.90;;;;;;4940409;29;20465;-83
2022/11/07 10:18:14;;;;;;;16.10;12.10;;;13.60;99.90;;;;;;4940290;29;20484;-83
2022/11/07 10:20:53;;;;;;;18.43;16.60;;;13.60;99.90;;;;;;4939758;29;20855;-83
2022/11/07 10:23:34;;;;;;;12.30;6.60;;;13.50;99.90;;;;;;4940888;29;20467;-83
2022/11/07 10:26:07;;;;;;;14.93;5.43;;;13.70;99.90;;;;;;4940497;29;20472;-83
2022/11/07 10:28:40;;;;;;;15.40;4.70;;;13.80;99.90;;;;;;4940217;29;20480;-83
2022/11/07 10:31:12;;;;;;;12.57;4.63;;;13.70;99.90;;;;;;4940074;29;20460;-83
2022/11/07 10:33:44;;;;;;;12.50;4.63;;;13.90;99.90;;;;;;4939870;29;20959;-83
2022/11/07 10:36:19;;;;;;;8.70;3.20;;;14.00;99.90;;;;;;4940435;29;20457;-83
2022/11/07 10:38:45;;;;;;;9.50;3.90;;;14.10;99.90;;;;;;4939640;29;20484;-83
2022/11/07 10:41:17;;;;;;;8.10;3.53;;;14.40;99.90;;;;;;4939621;29;20488;-83
2022/11/07 10:43:48;;;;;;;6.57;1.97;;;14.40;99.90;;;;;;4939878;29;20801;-84
2022/11/07 10:46:20;;;;;;;11.17;2.50;;;14.50;99.50;;;;;;4939729;29;20519;-83
2022/11/07 10:48:55;;;;;;;6.20;2.43;;;14.90;99.70;;;;;;4941264;29;20477;-82
2022/11/07 10:51:33;;;;;;;17.93;2.70;;;15.10;99.70;;;;;;4937877;29;20816;-84
2022/11/07 10:54:00;;;;;;;7.73;2.53;;;15.30;99.00;;;;;;4939092;29;20860;-84
2022/11/07 10:56:30;;;;;;;10.97;2.63;;;15.20;97.70;;;;;;4938733;29;20540;-82
2022/11/07 10:59:01;;;;;;;9.77;2.43;;;15.20;98.20;;;;;;4938881;29;20510;-83
2022/11/07 11:01:38;;;;;;;10.00;2.47;;;15.10;97.20;;;;;;4939563;29;20504;-84
2022/11/07 11:07:12;;;;;;;12.70;2.47;;;15.40;97.50;;;;;;4941288;28;20463;-86
2022/11/07 11:09:50;;;;;;;10.30;2.77;;;15.60;95.70;;;;;;4940549;29;21008;-84
2022/11/07 11:12:23;;;;;;;10.03;1.73;;;15.70;94.80;;;;;;4938548;29;20457;-84
2022/11/07 11:14:49;;;;;;;7.80;2.10;;;15.90;94.40;;;;;;4944316;29;20455;-84
2022/11/07 11:17:25;;;;;;;8.10;2.90;;;16.20;94.00;;;;;;4942756;29;20484;-84
2022/11/07 11:19:53;;;;;;;8.30;2.00;;;16.20;93.50;;;;;;4941781;29;21009;-84
2022/11/07 11:22:22;;;;;;;9.30;2.30;;;16.40;93.60;;;;;;4960750;29;20480;-84
2022/11/07 11:24:59;;;;;;;9.07;2.40;;;16.70;93.70;;;;;;4961250;29;20457;-84
2022/11/07 11:27:29;;;;;;;9.30;2.17;;;17.40;91.90;;;;;;4960953;28;20488;-85
2022/11/07 11:30:01;;;;;;;7.17;2.30;;;17.40;90.00;;;;;;4961306;29;20486;-85
2022/11/07 11:32:34;;;;;;;4.80;1.40;;;17.80;89.60;;;;;;4961235;29;20453;-85
2022/11/07 11:35:15;;;;;;;8.70;2.03;;;17.90;87.80;;;;;;4961553;29;20954;-85
2022/11/07 11:37:47;;;;;;;12.47;3.07;;;17.80;87.90;;;;;;4960772;28;20483;-85
2022/11/07 11:40:18;;;;;;;9.60;1.97;;;17.80;89.20;;;;;;4961183;29;20463;-83
2022/11/07 11:42:53;;;;;;;12.03;1.70;;;17.70;88.40;;;;;;4960990;29;21024;-84
2022/11/07 11:45:29;;;;;;;6.10;2.07;;;17.20;87.00;;;;;;4961370;29;20466;-84
2022/11/07 11:48:01;;;;;;;9.77;2.00;;;17.00;90.40;;;;;;4960989;28;20478;-84
2022/11/07 11:50:35;;;;;;;6.70;1.77;;;16.80;90.40;;;;;;4960675;29;20957;-84
2022/11/07 11:53:02;;;;;;;8.10;2.30;;;16.60;90.30;;;;;;4960845;29;20956;-84
2022/11/07 11:55:38;;;;;;;7.63;1.80;;;16.50;90.60;;;;;;4960437;29;20979;-84
2022/11/07 11:58:17;;;;;;;10.70;2.63;;;16.40;91.40;;;;;;4961083;28;20834;-84
2022/11/07 12:00:48;;;;;;;6.23;2.00;;;16.20;91.10;;;;;;4961192;29;20463;-85
2022/11/07 12:03:36;;;;;;;7.83;2.20;;;16.40;90.90;;;;;;4961153;29;20845;-84
2022/11/07 12:06:15;;;;;;;10.10;2.23;;;17.00;90.40;;;;;;4961274;29;20465;-84
2022/11/07 12:09:00;;;;;;;6.23;1.60;;;17.50;87.80;;;;;;4961094;28;20482;-85
2022/11/07 12:11:33;;;;;;;6.57;1.97;;;17.70;86.00;;;;;;4961322;29;20461;-84
2022/11/07 12:14:07;;;;;;;8.60;2.30;;;17.70;85.80;;;;;;4961180;29;20475;-84
2022/11/07 12:16:40;;;;;;;9.40;2.03;;;18.10;84.30;;;;;;4961548;29;20458;-84
2022/11/07 12:19:19;;;;;;;11.43;2.20;;;18.00;82.50;;;;;;4961469;29;20462;-84
2022/11/07 12:21:57;;;;;;;7.10;2.03;;;18.10;82.20;;;;;;4960995;29;20478;-85
2022/11/07 12:24:37;;;;;;;9.90;1.63;;;18.00;82.20;;;;;;4960927;28;20461;-84
2022/11/07 12:27:15;;;;;;;9.17;1.60;;;17.80;82.20;;;;;;4961407;28;20485;-84
2022/11/07 12:30:01;;;;;;;7.30;2.07;;;17.60;83.90;;;;;;4961033;29;20848;-84
2022/11/07 12:32:33;;;;;;;7.40;1.80;;;17.60;83.90;;;;;;4961258;29;20459;-84
2022/11/07 12:35:32;;;;;;;7.63;2.17;;;17.80;83.30;;;;;;4960712;29;20455;-84
2022/11/07 12:38:34;;;;;;;9.70;2.00;;;18.10;81.90;;;;;;4961173;28;20504;-84
2022/11/07 12:41:08;;;;;;;7.20;2.00;;;17.80;81.10;;;;;;4960428;29;20464;-84
2022/11/07 12:43:48;;;;;;;6.57;1.73;;;17.90;82.70;;;;;;4960808;28;20463;-85
2022/11/07 12:46:25;;;;;;;7.10;1.90;;;17.50;81.20;;;;;;4961402;29;20464;-85
2022/11/07 12:49:23;;;;;;;9.17;2.00;;;17.70;81.80;;;;;;4960563;28;20496;-84
2022/11/07 12:51:58;;;;;;;5.23;1.53;;;17.60;82.70;;;;;;4957641;29;20457;-85
2022/11/07 12:54:41;;;;;;;6.53;2.30;;;17.50;83.50;;;;;;4961238;29;20468;-85
2022/11/07 12:57:15;;;;;;;11.00;1.70;;;17.40;83.10;;;;;;4960557;28;20493;-83
2022/11/07 12:59:45;;;;;;;9.67;1.40;;;17.30;83.30;;;;;;4961014;29;20458;-85
2022/11/07 13:02:28;;;;;;;6.33;1.50;;;17.10;83.40;;;;;;4960562;29;20485;-84
2022/11/07 13:05:03;;;;;;;8.70;2.17;;;16.90;83.20;;;;;;4961220;29;20468;-84
2022/11/07 13:07:38;;;;;;;4.97;1.73;;;16.80;83.40;;;;;;4961385;28;21015;-85
2022/11/07 13:10:15;;;;;;;7.50;1.50;;;16.90;83.70;;;;;;4960829;29;20456;-82
2022/11/07 13:12:50;;;;;;;6.00;1.17;;;17.00;85.10;;;;;;4960928;29;20656;-85
2022/11/07 13:15:18;;;;;;;8.07;1.90;;;16.90;84.90;;;;;;4960533;29;20944;-85